Time;durP1;ratioP1;P1;durP2;ratioP2;P2;SDS_P1;SDS_P2;PMS_P1;PMS_P2;Temp;Humidity;BMP_temperature;BMP_pressure;BME280_temperature;BME280_humidity;BME280_pressure;Samples;Min_cycle;Max_cycle;Signal;HPM_P1;HPM_P2
2023/11/20 00:01:03;;;;;;;0.00;0.00;;;11.20;99.90;;;;;;6176802;23;20036;-90
2023/11/20 00:03:29;;;;;;;0.00;0.00;;;;;;;;;;6176768;23;20002;-88
2023/11/20 00:05:55;;;;;;;0.00;0.00;;;;;;;;;;6176761;23;20009;-90
2023/11/20 00:08:21;;;;;;;0.00;0.00;;;;;;;;;;6176038;23;19993;-88
2023/11/20 00:10:47;;;;;;;0.00;0.00;;;;;;;;;;6176324;23;20005;-88
2023/11/20 00:13:13;;;;;;;0.00;0.00;;;;;;;;;;6176236;23;20032;-92
2023/11/20 00:15:39;;;;;;;0.00;0.00;;;;;;;;;;6180249;23;20004;-85
2023/11/20 00:18:05;;;;;;;0.00;0.00;;;;;;;;;;6182123;23;19998;-86
2023/11/20 00:20:31;;;;;;;0.00;0.00;;;;;;;;;;6178548;23;20016;-89
2023/11/20 00:22:57;;;;;;;0.00;0.00;;;;;;;;;;6176366;23;20013;-87
2023/11/20 00:25:23;;;;;;;0.00;0.00;;;;;;;;;;6176102;23;20037;-87
2023/11/20 00:27:50;;;;;;;0.00;0.00;;;;;;;;;;6175908;23;20013;-87
2023/11/20 00:30:16;;;;;;;0.00;0.00;;;;;;;;;;6174699;23;20064;-91
2023/11/20 00:32:42;;;;;;;0.00;0.00;;;;;;;;;;6175248;23;20092;-91
2023/11/20 00:35:10;;;;;;;0.00;0.00;;;11.30;99.90;;;;;;6176151;23;20016;-87
2023/11/20 00:37:36;;;;;;;0.00;0.00;;;;;;;;;;6175097;23;20092;-89
2023/11/20 00:40:02;;;;;;;0.00;0.00;;;;;;;;;;6175079;23;20009;-89
2023/11/20 00:42:28;;;;;;;0.00;0.00;;;;;;;;;;6175148;23;20033;-89
2023/11/20 00:44:54;;;;;;;0.00;0.00;;;11.30;99.90;;;;;;6174543;23;20006;-88
2023/11/20 00:47:20;;;;;;;0.00;0.00;;;;;;;;;;6174270;23;19998;-89
2023/11/20 00:49:46;;;;;;;0.00;0.00;;;;;;;;;;6174140;23;20085;-88
2023/11/20 00:52:12;;;;;;;0.00;0.00;;;;;;;;;;6174602;23;20049;-87
2023/11/20 00:54:39;;;;;;;0.00;0.00;;;11.30;99.90;;;;;;6174051;23;20005;-90
2023/11/20 00:57:05;;;;;;;0.00;0.00;;;;;;;;;;6173334;23;20041;-90
2023/11/20 00:59:31;;;;;;;0.00;0.00;;;;;;;;;;6173967;23;20005;-90
2023/11/20 01:01:57;;;;;;;0.00;0.00;;;;;;;;;;6175290;23;20000;-90
2023/11/20 01:04:23;;;;;;;0.00;0.00;;;;;;;;;;6174680;23;20025;-89
2023/11/20 01:06:49;;;;;;;0.00;0.00;;;;;;;;;;6173967;23;20006;-90
2023/11/20 01:09:16;;;;;;;0.00;0.00;;;;;;;;;;6174033;23;20017;-90
2023/11/20 01:11:46;;;;;;;0.00;0.00;;;;;;;;;;6175597;23;20025;-91
2023/11/20 01:14:12;;;;;;;0.00;0.00;;;;;;;;;;6174009;23;20100;-87
2023/11/20 01:16:38;;;;;;;0.00;0.00;;;;;;;;;;6173942;23;20017;-88
2023/11/20 01:19:04;;;;;;;0.00;0.00;;;;;;;;;;6174499;23;20006;-89
2023/11/20 01:21:30;;;;;;;0.00;0.00;;;;;;;;;;6173367;23;20005;-89
2023/11/20 01:23:56;;;;;;;0.00;0.00;;;;;;;;;;6173721;23;19985;-87
2023/11/20 01:26:22;;;;;;;0.00;0.00;;;;;;;;;;6171822;23;20001;-89
2023/11/20 01:28:48;;;;;;;0.00;0.00;;;;;;;;;;6173902;23;20008;-90
2023/11/20 01:31:14;;;;;;;0.00;0.00;;;;;;;;;;6173069;23;20048;-87
2023/11/20 01:33:40;;;;;;;0.00;0.00;;;;;;;;;;6173285;23;20013;-89
2023/11/20 01:36:06;;;;;;;0.00;0.00;;;;;;;;;;6171670;23;20061;-90
2023/11/20 01:38:32;;;;;;;0.00;0.00;;;;;;;;;;6173378;23;20009;-88
2023/11/20 01:40:58;;;;;;;0.00;0.00;;;;;;;;;;6173518;23;20049;-88
2023/11/20 01:43:24;;;;;;;0.00;0.00;;;;;;;;;;6172934;23;20028;-87
2023/11/20 01:45:50;;;;;;;0.00;0.00;;;;;;;;;;6172698;23;20006;-89
2023/11/20 01:48:17;;;;;;;0.00;0.00;;;;;;;;;;6172890;23;20002;-87
2023/11/20 01:50:43;;;;;;;0.00;0.00;;;;;;;;;;6171751;23;20062;-90
2023/11/20 01:53:09;;;;;;;0.00;0.00;;;;;;;;;;6173492;23;20006;-90
2023/11/20 01:55:35;;;;;;;0.00;0.00;;;;;;;;;;6171471;23;20005;-89
2023/11/20 01:58:01;;;;;;;0.00;0.00;;;;;;;;;;6173631;23;20017;-90
2023/11/20 02:00:27;;;;;;;0.00;0.00;;;;;;;;;;6173938;23;20057;-88
2023/11/20 02:02:53;;;;;;;0.00;0.00;;;;;;;;;;6173805;23;20005;-87
2023/11/20 02:05:19;;;;;;;0.00;0.00;;;;;;;;;;6172654;23;20037;-90
2023/11/20 02:07:45;;;;;;;0.10;0.10;;;;;;;;;;6172969;23;20005;-89
2023/11/20 02:10:11;;;;;;;0.00;0.00;;;;;;;;;;6172155;23;20057;-91
2023/11/20 02:12:38;;;;;;;0.00;0.00;;;;;;;;;;6174426;23;20010;-88
2023/11/20 02:15:05;;;;;;;0.00;0.00;;;11.30;99.90;;;;;;6174351;23;20009;-88
2023/11/20 02:17:32;;;;;;;0.00;0.00;;;;;;;;;;6172557;23;20012;-90
2023/11/20 02:19:58;;;;;;;0.00;0.00;;;;;;;;;;6172351;23;20013;-89
2023/11/20 02:22:24;;;;;;;0.00;0.00;;;;;;;;;;6172049;23;20010;-89
2023/11/20 02:24:51;;;;;;;0.00;0.00;;;11.40;99.90;;;;;;6172050;23;20008;-91
2023/11/20 02:27:17;;;;;;;0.00;0.00;;;;;;;;;;6172535;23;20001;-90
2023/11/20 02:29:53;;;;;;;0.00;0.00;;;11.40;99.90;;;;;;6172414;23;20465;-88
2023/11/20 02:32:19;;;;;;;0.00;0.00;;;;;;;;;;6172316;23;20017;-86
2023/11/20 02:34:45;;;;;;;0.00;0.00;;;;;;;;;;6172349;23;20010;-90
2023/11/20 02:37:11;;;;;;;0.00;0.00;;;11.40;99.90;;;;;;6171802;23;20009;-90
2023/11/20 02:39:40;;;;;;;0.00;0.00;;;;;;;;;;6172250;23;20063;-89
2023/11/20 02:42:06;;;;;;;0.00;0.00;;;;;;;;;;6171796;23;20082;-89
2023/11/20 02:44:32;;;;;;;0.00;0.00;;;;;;;;;;6171945;23;20031;-85
2023/11/20 02:46:58;;;;;;;0.00;0.00;;;;;;;;;;6171372;23;20010;-89
2023/11/20 02:49:24;;;;;;;0.00;0.00;;;;;;;;;;6173374;23;20003;-89
2023/11/20 02:51:50;;;;;;;0.00;0.00;;;;;;;;;;6172399;23;20010;-90
2023/11/20 02:54:16;;;;;;;0.00;0.00;;;;;;;;;;6172190;23;20037;-89
2023/11/20 02:56:42;;;;;;;0.00;0.00;;;;;;;;;;6172699;23;20017;-87
2023/11/20 02:59:08;;;;;;;0.00;0.00;;;;;;;;;;6171613;23;20006;-88
2023/11/20 03:01:34;;;;;;;0.00;0.00;;;;;;;;;;6173931;23;20005;-90
2023/11/20 03:04:00;;;;;;;0.00;0.00;;;;;;;;;;6175653;23;20020;-90
2023/11/20 03:06:26;;;;;;;0.00;0.00;;;;;;;;;;6175425;23;20004;-90
2023/11/20 03:08:52;;;;;;;0.00;0.00;;;;;;;;;;6175550;23;20085;-90
2023/11/20 03:11:18;;;;;;;0.00;0.00;;;;;;;;;;6175124;23;20013;-86
2023/11/20 03:13:45;;;;;;;0.00;0.00;;;;;;;;;;6174633;23;20010;-90
2023/11/20 03:16:11;;;;;;;0.00;0.00;;;;;;;;;;6174533;23;20053;-90
2023/11/20 03:18:37;;;;;;;0.00;0.00;;;;;;;;;;6174076;23;20010;-90
2023/11/20 03:21:03;;;;;;;0.00;0.00;;;;;;;;;;6174897;23;20013;-89
2023/11/20 03:23:29;;;;;;;0.00;0.00;;;;;;;;;;6174212;23;20002;-89
2023/11/20 03:25:55;;;;;;;0.00;0.00;;;;;;;;;;6174255;23;20028;-90
2023/11/20 03:28:21;;;;;;;0.00;0.00;;;11.50;99.90;;;;;;6174005;23;20002;-91
2023/11/20 03:30:47;;;;;;;0.00;0.00;;;;;;;;;;6173102;23;20028;-90
2023/11/20 03:33:13;;;;;;;0.00;0.00;;;;;;;;;;6173875;23;20324;-88
2023/11/20 03:35:39;;;;;;;0.00;0.00;;;;;;;;;;6173256;23;20016;-88
2023/11/20 03:38:05;;;;;;;0.00;0.00;;;;;;;;;;6171799;23;20000;-87
2023/11/20 03:40:31;;;;;;;0.00;0.00;;;;;;;;;;6173004;23;20006;-88
2023/11/20 03:42:57;;;;;;;0.00;0.00;;;;;;;;;;6174328;23;20430;-90
2023/11/20 03:45:24;;;;;;;0.00;0.00;;;;;;;;;;6174277;23;20057;-89
2023/11/20 03:47:50;;;;;;;0.00;0.00;;;;;;;;;;6172862;23;20005;-89
2023/11/20 03:50:16;;;;;;;0.00;0.00;;;;;;;;;;6173021;23;20010;-90
2023/11/20 03:52:44;;;;;;;0.00;0.00;;;;;;;;;;6172007;23;20060;-89
2023/11/20 03:55:10;;;;;;;0.00;0.00;;;;;;;;;;6173317;23;20005;-90
2023/11/20 03:57:36;;;;;;;0.00;0.00;;;;;;;;;;6173509;23;20009;-89
2023/11/20 04:00:03;;;;;;;0.00;0.00;;;;;;;;;;6174241;23;20017;-90
2023/11/20 04:02:29;;;;;;;0.00;0.00;;;;;;;;;;6173395;23;20060;-86
2023/11/20 04:04:55;;;;;;;0.00;0.00;;;;;;;;;;6172303;23;20040;-90
2023/11/20 04:07:23;;;;;;;0.00;0.00;;;;;;;;;;6174049;23;20081;-90
2023/11/20 04:09:49;;;;;;;0.00;0.00;;;;;;;;;;6174113;23;20760;-90
2023/11/20 04:12:15;;;;;;;0.00;0.00;;;;;;;;;;6172943;23;20016;-90
2023/11/20 04:14:41;;;;;;;0.00;0.00;;;;;;;;;;6173514;23;20009;-90
2023/11/20 04:17:07;;;;;;;0.00;0.00;;;;;;;;;;6171660;23;20032;-89
2023/11/20 04:19:33;;;;;;;0.00;0.00;;;;;;;;;;6173788;23;20016;-89
2023/11/20 04:21:59;;;;;;;0.00;0.00;;;;;;;;;;6174758;23;20010;-89
2023/11/20 04:24:25;;;;;;;0.00;0.00;;;;;;;;;;6173337;23;20021;-89
2023/11/20 04:26:51;;;;;;;0.00;0.00;;;;;;;;;;6171941;23;20032;-89
2023/11/20 04:29:17;;;;;;;0.00;0.00;;;;;;;;;;6173921;23;20002;-89
2023/11/20 04:31:43;;;;;;;0.00;0.00;;;;;;;;;;6173178;23;20010;-88
2023/11/20 04:34:09;;;;;;;0.00;0.00;;;;;;;;;;6174026;23;20013;-91
2023/11/20 04:36:35;;;;;;;0.00;0.00;;;;;;;;;;6178423;23;20032;-86
2023/11/20 04:39:01;;;;;;;0.00;0.00;;;;;;;;;;6181362;23;20025;-87
2023/11/20 04:41:27;;;;;;;0.00;0.00;;;;;;;;;;6177360;23;20182;-90
2023/11/20 04:43:53;;;;;;;0.00;0.00;;;;;;;;;;6173601;23;20002;-91
2023/11/20 04:46:19;;;;;;;0.00;0.00;;;;;;;;;;6171510;23;19997;-87
2023/11/20 04:48:45;;;;;;;0.00;0.00;;;;;;;;;;6173226;23;20077;-89
2023/11/20 04:51:20;;;;;;;0.00;0.00;;;11.20;99.90;;;;;;6173463;23;20005;-89
2023/11/20 04:53:46;;;;;;;0.00;0.00;;;;;;;;;;6169821;23;20143;-89
2023/11/20 04:56:12;;;;;;;0.00;0.00;;;;;;;;;;6172196;23;20010;-89
2023/11/20 04:58:38;;;;;;;0.00;0.00;;;;;;;;;;6171152;23;20092;-89
2023/11/20 05:01:05;;;;;;;0.00;0.00;;;11.10;99.90;;;;;;6171413;23;20009;-86
2023/11/20 05:03:31;;;;;;;0.00;0.00;;;;;;;;;;6171486;23;20001;-87
2023/11/20 05:05:57;;;;;;;0.00;0.00;;;;;;;;;;6170083;23;20032;-89
2023/11/20 05:08:23;;;;;;;0.00;0.00;;;;;;;;;;6171414;23;19998;-90
2023/11/20 05:10:49;;;;;;;0.00;0.00;;;;;;;;;;6172034;23;20036;-88
2023/11/20 05:13:17;;;;;;;0.00;0.00;;;;;;;;;;6172605;23;20041;-89
2023/11/20 05:15:45;;;;;;;0.00;0.00;;;;;;;;;;6171004;23;20014;-87
2023/11/20 05:18:11;;;;;;;0.00;0.00;;;;;;;;;;6172168;23;20028;-89
2023/11/20 05:20:38;;;;;;;0.00;0.00;;;;;;;;;;6170017;23;20013;-90
2023/11/20 05:23:04;;;;;;;0.00;0.00;;;;;;;;;;6171216;23;20009;-89
2023/11/20 05:25:30;;;;;;;0.00;0.00;;;;;;;;;;6171216;23;20017;-89
2023/11/20 05:27:56;;;;;;;0.00;0.00;;;;;;;;;;6171186;23;20009;-88
2023/11/20 05:30:22;;;;;;;0.00;0.00;;;;;;;;;;6173047;23;20013;-90
2023/11/20 05:32:48;;;;;;;0.00;0.00;;;;;;;;;;6171576;23;20022;-87
2023/11/20 05:35:13;;;;;;;0.00;0.00;;;;;;;;;;6172189;23;20020;-90
2023/11/20 05:37:39;;;;;;;0.00;0.00;;;;;;;;;;6171347;23;20101;-88
2023/11/20 05:40:07;;;;;;;0.00;0.00;;;11.10;99.90;;;;;;6171037;23;20062;-91
2023/11/20 05:42:33;;;;;;;0.00;0.00;;;;;;;;;;6172314;23;20005;-89
2023/11/20 05:44:59;;;;;;;0.00;0.00;;;;;;;;;;6171556;23;20006;-89
2023/11/20 05:47:25;;;;;;;0.00;0.00;;;;;;;;;;6171925;23;20013;-89
2023/11/20 05:49:51;;;;;;;0.00;0.00;;;;;;;;;;6171606;23;20058;-90
2023/11/20 05:52:18;;;;;;;0.00;0.00;;;;;;;;;;6171917;23;20036;-90
2023/11/20 05:54:44;;;;;;;0.00;0.00;;;;;;;;;;6172493;23;20009;-89
2023/11/20 05:57:10;;;;;;;0.00;0.00;;;;;;;;;;6173917;23;20001;-89
2023/11/20 05:59:36;;;;;;;0.00;0.00;;;;;;;;;;6174546;23;20009;-89
2023/11/20 06:02:02;;;;;;;0.00;0.00;;;;;;;;;;6173608;23;20014;-90
2023/11/20 06:04:28;;;;;;;0.00;0.00;;;;;;;;;;6173256;23;20005;-90
2023/11/20 06:06:54;;;;;;;0.00;0.00;;;11.00;99.90;;;;;;6173234;23;20010;-89
2023/11/20 06:09:20;;;;;;;0.00;0.00;;;;;;;;;;6173138;23;20021;-88
2023/11/20 06:11:50;;;;;;;0.00;0.00;;;;;;;;;;6174039;23;20037;-90
2023/11/20 06:14:16;;;;;;;0.00;0.00;;;11.10;99.90;;;;;;6172757;23;20085;-91
2023/11/20 06:16:42;;;;;;;0.00;0.00;;;;;;;;;;6173148;23;20006;-88
2023/11/20 06:19:08;;;;;;;0.03;0.03;;;;;;;;;;6173756;23;20470;-89
2023/11/20 06:21:34;;;;;;;0.00;0.00;;;;;;;;;;6172519;23;20006;-89
2023/11/20 06:24:00;;;;;;;0.00;0.00;;;11.10;99.90;;;;;;6170903;23;20006;-90
2023/11/20 06:26:26;;;;;;;0.00;0.00;;;;;;;;;;6173682;23;20132;-89
2023/11/20 06:28:52;;;;;;;0.00;0.00;;;;;;;;;;6173634;23;20001;-89
2023/11/20 06:31:18;;;;;;;0.00;0.00;;;;;;;;;;6172563;23;20024;-88
2023/11/20 06:33:44;;;;;;;0.00;0.00;;;;;;;;;;6172132;23;20006;-89
2023/11/20 06:36:10;;;;;;;0.00;0.00;;;;;;;;;;6172704;23;20020;-89
2023/11/20 06:38:36;;;;;;;0.00;0.00;;;;;;;;;;6172774;23;20009;-89
2023/11/20 06:41:03;;;;;;;0.00;0.00;;;11.20;99.90;;;;;;6172901;23;19990;-88
2023/11/20 06:43:30;;;;;;;0.00;0.00;;;;;;;;;;6172531;23;20006;-89
2023/11/20 06:45:56;;;;;;;0.10;0.10;;;;;;;;;;6172351;23;20005;-88
2023/11/20 06:48:22;;;;;;;0.00;0.00;;;;;;;;;;6172197;23;20006;-88
2023/11/20 06:50:48;;;;;;;0.00;0.00;;;;;;;;;;6172375;23;19994;-90
2023/11/20 06:53:14;;;;;;;0.00;0.00;;;;;;;;;;6171650;23;20009;-91
2023/11/20 06:55:42;;;;;;;0.00;0.00;;;;;;;;;;6172554;23;20017;-87
2023/11/20 06:58:09;;;;;;;0.00;0.00;;;;;;;;;;6173503;23;20005;-89
2023/11/20 07:00:36;;;;;;;0.00;0.00;;;;;;;;;;6173324;23;20009;-88
2023/11/20 07:03:04;;;;;;;0.00;0.00;;;;;;;;;;6173167;23;20010;-89
2023/11/20 07:05:30;;;;;;;0.00;0.00;;;;;;;;;;6173555;23;20069;-90
2023/11/20 07:08:00;;;;;;;0.00;0.00;;;;;;;;;;6172689;23;20029;-90
2023/11/20 07:10:26;;;;;;;0.00;0.00;;;;;;;;;;6174185;23;20025;-89
2023/11/20 07:12:56;;;;;;;0.00;0.00;;;11.00;99.90;;;;;;6172073;23;20005;-89
2023/11/20 07:15:23;;;;;;;;;;;13.00;99.90;;;;;;6171099;23;20073;-85
2023/11/20 07:17:49;;;;;;;0.00;0.00;;;;;;;;;;6176777;23;19892;-85
2023/11/20 07:20:15;;;;;;;0.00;0.00;;;;;;;;;;6177515;23;19994;-87
2023/11/20 07:22:41;;;;;;;0.00;0.00;;;;;;;;;;6175951;23;20001;-87
2023/11/20 07:25:08;;;;;;;0.00;0.00;;;;;;;;;;6174020;23;19997;-87
2023/11/20 07:27:37;;;;;;;0.00;0.00;;;11.00;99.90;;;;;;6176142;23;20358;-89
2023/11/20 07:30:04;;;;;;;0.00;0.00;;;;;;;;;;6174840;23;20002;-87
2023/11/20 07:32:30;;;;;;;0.00;0.00;;;;;;;;;;6174234;23;20014;-86
2023/11/20 07:34:56;;;;;;;0.10;0.10;;;;;;;;;;6174336;23;20013;-88
2023/11/20 07:37:23;;;;;;;0.00;0.00;;;;;;;;;;6173673;23;20053;-85
2023/11/20 07:39:49;;;;;;;0.00;0.00;;;;;;;;;;6175078;23;20010;-85
2023/11/20 07:42:15;;;;;;;0.10;0.10;;;;;;;;;;6174522;23;20548;-86
2023/11/20 07:44:41;;;;;;;0.08;0.08;;;;;;;;;;6174399;23;20017;-87
2023/11/20 07:47:07;;;;;;;0.00;0.00;;;;;;;;;;6174105;23;20001;-88
2023/11/20 07:49:33;;;;;;;0.00;0.00;;;;;;;;;;6175230;23;20032;-87
2023/11/20 07:51:59;;;;;;;0.05;0.05;;;;;;;;;;6175353;23;20013;-88
2023/11/20 07:54:26;;;;;;;0.00;0.00;;;11.00;99.90;;;;;;6175295;23;20016;-89
2023/11/20 07:56:52;;;;;;;0.00;0.00;;;;;;;;;;6176197;23;20013;-86
2023/11/20 07:59:18;;;;;;;0.00;0.00;;;;;;;;;;6176588;23;20070;-87
2023/11/20 08:01:43;;;;;;;0.00;0.00;;;11.00;99.90;;;;;;6176733;23;20009;-86
2023/11/20 08:04:11;;;;;;;0.00;0.00;;;;;;;;;;6175594;23;20017;-87
2023/11/20 08:06:37;;;;;;;0.00;0.00;;;;;;;;;;6174977;23;20032;-86
2023/11/20 08:09:03;;;;;;;0.00;0.00;;;;;;;;;;6174595;23;20125;-87
2023/11/20 08:11:29;;;;;;;0.00;0.00;;;;;;;;;;6175948;23;20034;-85
2023/11/20 08:13:55;;;;;;;0.00;0.00;;;;;;;;;;6174785;23;20006;-88
2023/11/20 08:16:21;;;;;;;0.00;0.00;;;;;;;;;;6175491;23;20005;-87
2023/11/20 08:18:48;;;;;;;0.00;0.00;;;;;;;;;;6175506;23;20009;-88
2023/11/20 08:21:14;;;;;;;0.00;0.00;;;;;;;;;;6175890;23;20012;-87
2023/11/20 08:23:40;;;;;;;0.00;0.00;;;;;;;;;;6173284;23;20006;-85
2023/11/20 08:26:06;;;;;;;0.00;0.00;;;;;;;;;;6175760;23;20064;-88
2023/11/20 08:28:32;;;;;;;0.00;0.00;;;;;;;;;;6175782;23;20008;-87
2023/11/20 08:30:58;;;;;;;0.00;0.00;;;;;;;;;;6176313;23;20014;-87
2023/11/20 08:33:24;;;;;;;0.00;0.00;;;;;;;;;;6175418;23;20006;-86
2023/11/20 08:35:50;;;;;;;0.00;0.00;;;;;;;;;;6174483;23;20009;-88
2023/11/20 08:38:16;;;;;;;0.00;0.00;;;;;;;;;;6174046;23;20160;-87
2023/11/20 08:40:42;;;;;;;0.00;0.00;;;;;;;;;;6174215;23;20009;-88
2023/11/20 08:43:08;;;;;;;0.00;0.00;;;;;;;;;;6173628;23;20016;-87
2023/11/20 08:45:34;;;;;;;0.00;0.00;;;;;;;;;;6173990;23;20017;-87
2023/11/20 08:48:00;;;;;;;0.00;0.00;;;;;;;;;;6173692;23;20014;-88
2023/11/20 08:50:26;;;;;;;0.00;0.00;;;;;;;;;;6172612;23;20060;-88
2023/11/20 08:52:55;;;;;;;0.00;0.00;;;11.20;99.90;;;;;;6173286;23;20000;-85
2023/11/20 08:55:21;;;;;;;0.00;0.00;;;;;;;;;;6172718;23;20005;-87
2023/11/20 08:57:47;;;;;;;0.00;0.00;;;;;;;;;;6174884;23;20037;-88
2023/11/20 09:00:14;;;;;;;0.00;0.00;;;;;;;;;;6173661;23;20002;-87
2023/11/20 09:02:41;;;;;;;0.00;0.00;;;;;;;;;;6173433;23;20248;-86
2023/11/20 09:05:08;;;;;;;0.00;0.00;;;;;;;;;;6173786;23;20005;-90
2023/11/20 09:07:34;;;;;;;0.00;0.00;;;;;;;;;;6174276;23;20350;-87
2023/11/20 09:10:00;;;;;;;0.00;0.00;;;;;;;;;;6174832;23;20057;-86
2023/11/20 09:12:26;;;;;;;0.00;0.00;;;;;;;;;;6175536;23;20024;-87
2023/11/20 09:14:52;;;;;;;0.00;0.00;;;;;;;;;;6175862;23;20009;-84
2023/11/20 09:17:18;;;;;;;0.00;0.00;;;;;;;;;;6173650;23;20021;-87
2023/11/20 09:19:44;;;;;;;0.00;0.00;;;;;;;;;;6173494;23;20004;-87
2023/11/20 09:22:10;;;;;;;0.00;0.00;;;;;;;;;;6176829;23;20010;-86
2023/11/20 09:24:36;;;;;;;0.00;0.00;;;;;;;;;;6179048;23;20404;-85
2023/11/20 09:27:02;;;;;;;0.00;0.00;;;;;;;;;;6177916;23;20018;-85
2023/11/20 09:29:28;;;;;;;0.00;0.00;;;;;;;;;;6173132;23;20060;-90
2023/11/20 09:31:54;;;;;;;0.00;0.00;;;11.50;99.90;;;;;;6172740;23;20014;-88
2023/11/20 09:34:20;;;;;;;0.00;0.00;;;;;;;;;;6172527;23;20005;-86
2023/11/20 09:36:46;;;;;;;0.10;0.10;;;;;;;;;;6172743;23;20090;-86
2023/11/20 09:39:15;;;;;;;0.00;0.00;;;;;;;;;;6172534;23;20013;-86
2023/11/20 09:41:44;;;;;;;0.00;0.00;;;11.50;99.90;;;;;;6173387;23;20006;-87
2023/11/20 09:44:12;;;;;;;0.00;0.00;;;11.50;99.90;;;;;;6172576;23;19998;-88
2023/11/20 09:46:43;;;;;;;0.00;0.00;;;11.50;99.90;;;;;;6171777;23;20072;-89
2023/11/20 09:49:09;;;;;;;0.08;0.08;;;;;;;;;;6170662;23;20009;-86
2023/11/20 09:51:36;;;;;;;0.00;0.00;;;11.50;99.90;;;;;;6172920;23;20001;-86
2023/11/20 09:54:08;;;;;;;0.00;0.00;;;11.40;99.90;;;;;;6175778;23;20025;-86
2023/11/20 09:56:34;;;;;;;0.00;0.00;;;;;;;;;;6175051;23;20005;-84
2023/11/20 09:59:00;;;;;;;0.00;0.00;;;;;;;;;;6177601;23;20001;-85
2023/11/20 10:01:26;;;;;;;0.00;0.00;;;11.20;99.90;;;;;;6178571;23;19994;-87
2023/11/20 10:03:54;;;;;;;0.00;0.00;;;11.20;99.90;;;;;;6180003;23;20013;-87
2023/11/20 10:06:24;;;;;;;0.00;0.00;;;;;;;;;;6179686;23;20009;-86
2023/11/20 10:08:50;;;;;;;0.00;0.00;;;11.30;99.90;;;;;;6179818;23;20029;-86
2023/11/20 10:11:20;;;;;;;0.00;0.00;;;11.30;99.90;;;;;;6179103;23;19985;-87
2023/11/20 10:13:46;;;;;;;0.00;0.00;;;;;;;;;;6180266;23;20021;-85
2023/11/20 10:16:26;;;;;;;0.00;0.00;;;11.30;99.90;;;;;;6178504;23;20049;-85
2023/11/20 10:18:52;;;;;;;;;;;10.90;99.90;;;;;;6180300;23;19998;-86
2023/11/20 10:21:21;;;;;;;0.00;0.00;;;11.40;99.90;;;;;;6179127;23;19927;-88
2023/11/20 10:23:57;;;;;;;0.00;0.00;;;11.50;99.90;;;;;;6178999;23;20013;-86
2023/11/20 10:26:23;;;;;;;0.00;0.00;;;;;;;;;;6179613;23;20009;-86
2023/11/20 10:28:49;;;;;;;0.00;0.00;;;;;;;;;;6178657;23;20028;-88
2023/11/20 10:31:15;;;;;;;0.00;0.00;;;;;;;;;;6178772;23;20001;-88
2023/11/20 10:33:43;;;;;;;0.00;0.00;;;;;;;;;;6179603;23;20017;-85
2023/11/20 10:36:13;;;;;;;0.00;0.00;;;11.60;99.90;;;;;;6178800;23;19993;-86
2023/11/20 10:38:39;;;;;;;0.00;0.00;;;;;;;;;;6176873;23;20002;-86
2023/11/20 10:41:08;;;;;;;0.00;0.00;;;11.70;99.90;;;;;;6177479;23;20000;-84
2023/11/20 10:43:36;;;;;;;0.00;0.00;;;11.60;99.90;;;;;;6177755;23;20016;-86
2023/11/20 10:46:05;;;;;;;0.00;0.00;;;;;;;;;;6178730;23;20264;-86
2023/11/20 10:48:37;;;;;;;0.00;0.00;;;11.60;99.90;;;;;;6178206;23;19994;-86
2023/11/20 10:51:10;;;;;;;0.00;0.00;;;11.60;99.90;;;;;;6176844;23;20004;-84
2023/11/20 10:53:38;;;;;;;0.00;0.00;;;11.60;99.90;;;;;;6177428;23;20001;-85
2023/11/20 10:56:05;;;;;;;0.00;0.00;;;11.70;99.90;;;;;;6177421;23;19994;-86
2023/11/20 10:58:31;;;;;;;0.00;0.00;;;;;;;;;;6179245;23;20037;-87
2023/11/20 11:01:01;;;;;;;0.00;0.00;;;;;;;;;;6179363;23;20012;-85
2023/11/20 11:03:30;;;;;;;0.00;0.00;;;;;;;;;;6176340;23;20020;-86
2023/11/20 11:06:03;;;;;;;0.00;0.00;;;11.60;99.90;;;;;;6178384;23;19998;-86
2023/11/20 11:08:34;;;;;;;0.00;0.00;;;11.60;99.90;;;;;;6177944;23;20020;-87
2023/11/20 11:11:02;;;;;;;0.00;0.00;;;11.50;99.90;;;;;;6178282;23;20005;-86
2023/11/20 11:13:32;;;;;;;0.00;0.00;;;11.50;99.90;;;;;;6178451;23;20004;-86
2023/11/20 11:15:59;;;;;;;0.00;0.00;;;11.60;99.90;;;;;;6177420;23;20013;-83
2023/11/20 11:18:29;;;;;;;0.00;0.00;;;11.60;99.90;;;;;;6176673;23;20025;-85
2023/11/20 11:20:56;;;;;;;0.00;0.00;;;11.80;99.90;;;;;;6177685;23;19993;-88
2023/11/20 11:23:28;;;;;;;0.00;0.00;;;11.80;99.90;;;;;;6177513;23;20017;-86
2023/11/20 11:26:17;;;;;;;0.00;0.00;;;11.80;99.90;;;;;;6180075;23;20000;-85
2023/11/20 11:28:53;;;;;;;0.00;0.00;;;11.90;99.90;;;;;;6179526;23;20053;-86
2023/11/20 11:31:22;;;;;;;0.08;0.08;;;12.00;99.90;;;;;;6178636;23;20017;-86
2023/11/20 11:33:48;;;;;;;0.00;0.00;;;;;;;;;;6177893;23;20000;-87
2023/11/20 11:36:29;;;;;;;0.00;0.00;;;12.30;99.90;;;;;;6179811;23;19990;-86
2023/11/20 11:39:08;;;;;;;0.00;0.00;;;12.30;99.90;;;;;;6181334;23;20021;-88
2023/11/20 11:41:58;;;;;;;0.00;0.00;;;12.30;99.90;;;;;;6180344;23;20097;-86
2023/11/20 11:44:34;;;;;;;0.00;0.00;;;12.20;99.90;;;;;;6180895;23;19993;-86
2023/11/20 11:47:05;;;;;;;0.00;0.00;;;12.10;99.90;;;;;;6179496;23;20017;-86
2023/11/20 11:49:31;;;;;;;0.00;0.00;;;;;;;;;;6178941;23;19994;-86
2023/11/20 11:52:04;;;;;;;0.00;0.00;;;12.10;99.90;;;;;;6181839;23;20077;-85
2023/11/20 11:54:30;;;;;;;0.10;0.10;;;;;;;;;;6180105;23;19989;-87
2023/11/20 11:56:56;;;;;;;0.00;0.00;;;;;;;;;;6180832;23;20239;-88
2023/11/20 11:59:40;;;;;;;0.00;0.00;;;12.20;99.90;;;;;;6179374;23;19993;-87
2023/11/20 12:02:06;;;;;;;0.00;0.00;;;;;;;;;;6180914;23;20014;-85
2023/11/20 12:04:57;;;;;;;0.00;0.00;;;12.10;99.90;;;;;;6180516;23;19997;-87
2023/11/20 12:07:35;;;;;;;0.00;0.00;;;12.20;99.90;;;;;;6179775;23;20003;-88
2023/11/20 12:10:01;;;;;;;0.00;0.00;;;;;;;;;;6178684;23;19994;-86
2023/11/20 12:13:06;;;;;;;0.00;0.00;;;11.90;99.90;;;;;;6180741;23;20374;-87
2023/11/20 12:15:31;;;;;;;0.00;0.00;;;;;;;;;;6180945;23;20008;-87
2023/11/20 12:18:00;;;;;;;0.00;0.00;;;11.60;99.90;;;;;;6180346;23;20005;-88
2023/11/20 12:20:26;;;;;;;0.00;0.00;;;;;;;;;;6180531;23;19994;-87
2023/11/20 12:22:55;;;;;;;0.00;0.00;;;11.60;99.90;;;;;;6179491;23;20028;-87
2023/11/20 12:25:21;;;;;;;0.00;0.00;;;;;;;;;;6179809;23;20033;-87
2023/11/20 12:27:47;;;;;;;0.00;0.00;;;;;;;;;;6177778;23;20009;-87
2023/11/20 12:30:14;;;;;;;0.00;0.00;;;;;;;;;;6179527;23;20033;-86
2023/11/20 12:32:40;;;;;;;0.00;0.00;;;;;;;;;;6180739;23;20001;-86
2023/11/20 12:35:10;;;;;;;0.00;0.00;;;11.90;99.90;;;;;;6177495;23;20012;-85
2023/11/20 12:37:36;;;;;;;;;;;11.90;99.90;;;;;;6180751;23;20009;-86
2023/11/20 12:40:02;;;;;;;0.00;0.00;;;;;;;;;;6179680;23;19920;-87
2023/11/20 12:42:29;;;;;;;0.00;0.00;;;12.00;99.90;;;;;;6178893;23;20033;-85
2023/11/20 12:44:55;;;;;;;0.00;0.00;;;;;;;;;;6179172;23;19997;-86
2023/11/20 12:47:21;;;;;;;0.00;0.00;;;;;;;;;;6180130;23;19998;-87
2023/11/20 12:49:47;;;;;;;0.00;0.00;;;;;;;;;;6179889;23;19993;-86
2023/11/20 13:07:45;;;;;;;0.00;0.00;;;;;;;;;;6208364;22;20005;-90
2023/11/20 13:10:12;;;;;;;0.00;0.00;;;12.40;99.90;;;;;;6205563;22;20021;-90
2023/11/20 13:43:42;;;;;;;0.00;0.00;;;;;;;;;;6211659;23;20001;-90
2023/11/20 13:46:09;;;;;;;0.00;0.00;;;;;;;;;;6186217;23;19985;-91
2023/11/20 13:48:35;;;;;;;0.00;0.00;;;;;;;;;;6187292;23;19981;-90
2023/11/20 13:51:02;;;;;;;0.00;0.00;;;;;;;;;;6211701;23;19985;-90
2023/11/20 13:53:29;;;;;;;0.00;0.00;;;;;;;;;;6211511;23;19985;-91
2023/11/20 14:16:40;;;;;;;0.00;0.00;;;;;;;;;;6179230;23;20006;-90
2023/11/20 14:19:09;;;;;;;0.00;0.00;;;;;;;;;;6185906;22;20001;-90
2023/11/20 14:21:35;;;;;;;0.00;0.00;;;;;;;;;;6179777;23;20058;-90
2023/11/20 14:24:01;;;;;;;0.00;0.00;;;11.80;99.90;;;;;;6179258;23;20233;-89
2023/11/20 14:26:29;;;;;;;0.00;0.00;;;;;;;;;;6179012;23;19989;-90
2023/11/20 14:28:56;;;;;;;0.00;0.00;;;;;;;;;;6179404;23;20061;-91
2023/11/20 14:31:22;;;;;;;0.00;0.00;;;;;;;;;;6178316;23;20059;-91
2023/11/20 14:33:48;;;;;;;0.00;0.00;;;;;;;;;;6177854;23;19994;-90
2023/11/20 14:36:18;;;;;;;0.00;0.00;;;;;;;;;;6179307;23;20008;-91
2023/11/20 15:56:28;;;;;;;0.00;0.00;;;;;;;;;;6178648;23;20093;-90
2023/11/20 15:58:54;;;;;;;0.00;0.00;;;;;;;;;;6181827;23;20507;-90
2023/11/20 16:01:23;;;;;;;0.00;0.00;;;;;;;;;;6178268;23;19993;-88
2023/11/20 16:03:49;;;;;;;0.00;0.00;;;;;;;;;;6178805;23;19998;-89
2023/11/20 16:06:15;;;;;;;0.00;0.00;;;;;;;;;;6177988;23;20005;-90
2023/11/20 16:08:41;;;;;;;0.00;0.00;;;;;;;;;;6178279;23;19990;-90
2023/11/20 16:11:07;;;;;;;0.00;0.00;;;;;;;;;;6179429;23;20032;-89
2023/11/20 16:13:33;;;;;;;0.10;0.10;;;;;;;;;;6178457;23;20013;-91
2023/11/20 16:15:59;;;;;;;0.00;0.00;;;;;;;;;;6179839;23;20020;-89
2023/11/20 16:18:26;;;;;;;0.10;0.10;;;;;;;;;;6179861;23;19994;-90
2023/11/20 16:20:52;;;;;;;0.00;0.00;;;;;;;;;;6179813;23;20005;-89
2023/11/20 16:23:18;;;;;;;0.00;0.00;;;;;;;;;;6179823;23;20032;-90
2023/11/20 16:25:45;;;;;;;0.08;0.08;;;9.10;99.90;;;;;;6180665;23;20156;-90
2023/11/20 16:28:11;;;;;;;0.00;0.00;;;;;;;;;;6175478;23;20058;-90
2023/11/20 16:30:38;;;;;;;0.00;0.00;;;;;;;;;;6178803;23;19990;-87
2023/11/20 16:33:03;;;;;;;0.00;0.00;;;;;;;;;;6178194;23;19997;-90
2023/11/20 16:35:34;;;;;;;0.00;0.00;;;;;;;;;;6177694;23;20049;-88
2023/11/20 16:38:01;;;;;;;0.00;0.00;;;;;;;;;;6178975;23;20045;-90
2023/11/20 16:40:27;;;;;;;0.00;0.00;;;;;;;;;;6178184;23;20014;-89